Login to view Products
 
Friday, March 22, 2019 (10:06 UTC)
Fujairah International Airport
ICAO: OMFJ
IATA: FJR
  • METAR OMFJ 221000Z 10007KT 9999 SCT040 25/20 Q1015 RMK A2999 =
  • TAF OMFJ 220500Z 2206/2312 09008KT 8000 FEW040 PROB30 TEMPO 2206/2212 5000 -RA SCT025 BECMG 2213/2215 VRB03KT TEMPO 2300/2304 29005KT 5000 HZ BECMG 2304/2306 07008KT =
D:\Input Parser\Destinations\Final\05\OMFJL061205001880528645.txt
1